Time;durP1;ratioP1;P1;durP2;ratioP2;P2;SDS_P1;SDS_P2;PMS_P1;PMS_P2;Temp;Humidity;BMP_temperature;BMP_pressure;BME280_temperature;BME280_humidity;BME280_pressure;Samples;Min_cycle;Max_cycle;Signal;HPM_P1;HPM_P2
2023/12/05 00:00:28;;;;;;;33.17;11.00;;;;;;;-1.23;83.09;100677.25;5008279;28;20034;-60
2023/12/05 00:02:54;;;;;;;27.37;9.57;;;;;;;-1.21;82.72;100675.66;5008974;28;20401;-60
2023/12/05 00:05:19;;;;;;;26.87;10.10;;;;;;;-1.19;83.19;100684.50;5007555;28;20049;-60
2023/12/05 00:07:44;;;;;;;26.00;9.60;;;;;;;-1.22;82.94;100677.34;5008388;28;20091;-60
2023/12/05 00:10:10;;;;;;;29.00;9.75;;;;;;;-1.20;82.88;100675.81;5007869;28;20125;-60
2023/12/05 00:12:35;;;;;;;29.37;10.20;;;;;;;-1.18;82.97;100681.09;5008489;28;20038;-59
2023/12/05 00:15:01;;;;;;;27.97;9.67;;;;;;;-1.14;82.72;100676.34;5008711;28;20116;-59
2023/12/05 00:17:26;;;;;;;27.47;9.17;;;;;;;-1.16;82.64;100672.69;5008236;28;20065;-60
2023/12/05 00:19:51;;;;;;;25.50;9.97;;;;;;;-1.17;82.73;100675.16;5007896;28;20036;-60
2023/12/05 00:22:17;;;;;;;29.70;9.13;;;;;;;-1.17;82.80;100677.75;5008233;28;20285;-60
2023/12/05 00:24:43;;;;;;;28.77;10.27;;;;;;;-1.20;82.98;100670.63;5008245;28;20497;-59
2023/12/05 00:27:08;;;;;;;33.05;10.60;;;;;;;-1.18;82.98;100662.97;5008112;28;20037;-59
2023/12/05 00:29:34;;;;;;;23.27;8.67;;;;;;;-1.16;82.88;100672.69;5007878;28;20117;-60
2023/12/05 00:31:59;;;;;;;21.20;8.40;;;;;;;-1.16;82.95;100670.09;5008439;28;20095;-60
2023/12/05 00:34:24;;;;;;;25.13;9.23;;;;;;;-1.19;82.86;100669.84;5008325;28;20493;-60
2023/12/05 00:36:50;;;;;;;31.53;11.63;;;;;;;-1.19;82.89;100668.94;5007991;28;20285;-60
2023/12/05 00:39:15;;;;;;;30.23;11.67;;;;;;;-1.19;83.07;100674.13;5006995;28;20431;-61
2023/12/05 00:41:41;;;;;;;27.67;10.43;;;;;;;-1.18;82.89;100661.28;5008090;28;20116;-61
2023/12/05 00:44:07;;;;;;;25.63;10.23;;;;;;;-1.16;82.76;100664.91;5008085;28;20405;-61
2023/12/05 00:46:32;;;;;;;23.42;9.40;;;;;;;-1.15;82.76;100671.94;5008017;28;20489;-60
2023/12/05 00:51:31;;;;;;;28.65;11.45;;;;;;;-1.13;82.79;100677.22;5087748;27;20356;-62
2023/12/05 00:55:37;;;;;;;26.52;10.27;;;;;;;-1.12;82.75;100672.19;5108104;27;20893;-60
2023/12/05 00:58:03;;;;;;;25.07;9.90;;;;;;;-1.10;82.79;100668.03;5108024;28;20040;-60
2023/12/05 01:00:28;;;;;;;28.77;9.73;;;;;;;-1.11;82.85;100665.31;5107404;28;20118;-61
2023/12/05 01:02:53;;;;;;;30.93;9.63;;;;;;;-1.09;82.47;100664.69;5108234;28;20445;-59
2023/12/05 01:05:19;;;;;;;30.10;11.23;;;;;;;-1.08;82.79;100665.56;5107983;28;20050;-61
2023/12/05 01:07:44;;;;;;;29.47;10.30;;;;;;;-1.06;82.67;100664.03;5107934;28;20040;-60
2023/12/05 01:10:10;;;;;;;26.47;9.77;;;;;;;-1.08;82.64;100660.38;5107249;28;20036;-61
2023/12/05 01:12:35;;;;;;;27.52;10.68;;;;;;;-1.10;82.70;100668.03;5107951;28;20066;-61
2023/12/05 01:15:01;;;;;;;27.13;10.47;;;;;;;-1.07;82.61;100667.38;5107825;28;20122;-61
2023/12/05 01:17:26;;;;;;;31.70;11.60;;;;;;;-1.05;82.49;100664.16;5107722;28;20126;-61
2023/12/05 01:19:51;;;;;;;26.08;9.38;;;;;;;-1.05;82.56;100663.25;5107379;28;20032;-61
2023/12/05 01:22:17;;;;;;;32.83;11.27;;;;;;;-1.04;82.58;100652.13;5107667;28;20040;-61
2023/12/05 01:24:42;;;;;;;26.40;10.10;;;;;;;-1.03;82.76;100654.81;5107570;28;20111;-61
2023/12/05 01:27:07;;;;;;;28.93;10.23;;;;;;;-0.97;82.54;100647.56;5104997;28;20036;-61
2023/12/05 01:29:33;;;;;;;25.73;9.60;;;;;;;-0.97;82.61;100651.84;5106951;28;20118;-60
2023/12/05 01:31:58;;;;;;;21.97;7.67;;;;;;;-0.96;82.38;100646.78;5107612;28;20040;-60
2023/12/05 01:34:23;;;;;;;27.77;10.73;;;;;;;-0.93;82.54;100644.44;5107529;28;20807;-60
2023/12/05 01:36:49;;;;;;;33.47;12.57;;;;;;;-0.94;82.45;100649.53;5107656;28;20134;-60
2023/12/05 01:39:14;;;;;;;27.77;10.63;;;;;;;-0.92;82.39;100646.25;5107333;28;20463;-60
2023/12/05 01:41:40;;;;;;;29.53;10.87;;;;;;;-0.88;82.50;100634.44;5107848;28;20081;-60
2023/12/05 01:44:06;;;;;;;30.80;10.40;;;;;;;-0.86;82.17;100635.50;5107408;28;20533;-60
2023/12/05 01:46:31;;;;;;;25.50;9.27;;;;;;;-0.81;82.34;100638.47;5107397;28;20054;-61
2023/12/05 01:48:58;;;;;;;23.92;9.88;;;;;;;-0.81;82.25;100635.88;5112282;28;20049;-61
2023/12/05 01:51:24;;;;;;;29.60;10.20;;;;;;;-0.77;82.44;100638.84;5127677;27;20035;-60
2023/12/05 01:53:51;;;;;;;32.57;9.80;;;;;;;-0.75;82.48;100629.53;5127605;27;20303;-60
2023/12/05 01:56:17;;;;;;;31.42;10.63;;;;;;;-0.74;82.29;100627.84;5127610;27;20035;-61
2023/12/05 01:58:43;;;;;;;25.50;9.43;;;;;;;-0.75;82.58;100631.22;5126805;27;20039;-61
2023/12/05 02:03:26;;;;;;;21.38;8.55;;;;;;;-0.70;82.55;100619.53;5067630;28;20373;-61
2023/12/05 02:05:51;;;;;;;28.97;11.07;;;;;;;-0.70;82.08;100612.66;5067699;28;20033;-61
2023/12/05 02:08:18;;;;;;;28.23;9.63;;;;;;;-0.69;81.98;100617.03;5067372;28;20291;-61
2023/12/05 02:10:43;;;;;;;32.65;11.48;;;;;;;-0.66;82.02;100617.31;5067297;28;20041;-60
2023/12/05 02:13:09;;;;;;;26.67;10.40;;;;;;;-0.64;82.19;100609.69;5067480;28;20044;-60
2023/12/05 02:15:35;;;;;;;27.48;10.63;;;;;;;-0.63;82.00;100608.88;5067473;28;20116;-61
2023/12/05 02:18:24;;;;;;;22.60;9.20;;;;;;;-0.63;82.10;100601.09;5067440;28;20443;-61
2023/12/05 02:21:03;;;;;;;26.85;9.98;;;;;;;-0.62;81.97;100602.91;5067287;28;20036;-61
2023/12/05 02:23:49;;;;;;;26.00;10.13;;;;;;;-0.63;81.73;100602.00;5067343;28;20079;-59
2023/12/05 02:26:27;;;;;;;22.50;8.23;;;;;;;-0.60;82.12;100601.38;5067360;28;20064;-61
2023/12/05 02:28:53;;;;;;;21.17;7.93;;;;;;;-0.62;82.03;100593.44;5067507;28;20033;-62
2023/12/05 02:31:18;;;;;;;27.50;10.88;;;;;;;-0.64;82.37;100591.53;5067855;28;20055;-61
2023/12/05 02:33:43;;;;;;;28.20;10.37;;;;;;;-0.63;82.08;100586.44;5066982;28;20055;-61
2023/12/05 02:36:48;;;;;;;23.60;10.07;;;;;;;-0.67;82.38;100586.97;5066887;28;20507;-61
2023/12/05 02:39:21;;;;;;;24.63;9.90;;;;;;;-0.66;82.55;100582.69;5066412;28;20135;-61
2023/12/05 02:41:53;;;;;;;27.27;10.60;;;;;;;-0.65;82.27;100585.44;5066866;28;20060;-62
2023/12/05 02:44:19;;;;;;;24.95;10.10;;;;;;;-0.60;82.19;100591.00;5066809;28;20450;-67
2023/12/05 02:46:48;;;;;;;24.55;9.73;;;;;;;-0.58;82.12;100584.22;5066714;28;20037;-61
2023/12/05 02:49:13;;;;;;;27.13;9.47;;;;;;;-0.55;81.92;100589.69;5074131;28;20085;-62
2023/12/05 02:51:40;;;;;;;27.42;9.48;;;;;;;-0.54;82.22;100587.19;5086982;28;20020;-62
2023/12/05 02:54:06;;;;;;;25.30;8.95;;;;;;;-0.53;81.84;100590.69;5086782;28;20116;-59
2023/12/05 02:57:22;;;;;;;29.38;9.50;;;;;;;-0.56;81.93;100591.38;5108081;27;20366;-62
2023/12/05 02:59:47;;;;;;;29.53;10.03;;;;;;;-0.54;82.15;100587.19;5107548;28;20040;-62
2023/12/05 03:02:13;;;;;;;25.65;10.25;;;;;;;-0.55;81.79;100575.03;5108019;28;20115;-61
2023/12/05 03:04:40;;;;;;;30.87;11.10;;;;;;;-0.53;82.24;100568.25;5103325;28;20028;-61
2023/12/05 03:07:06;;;;;;;25.60;9.85;;;;;;;-0.51;82.00;100568.38;5089849;28;20055;-61
2023/12/05 03:09:31;;;;;;;18.33;7.37;;;;;;;-0.49;82.09;100559.03;5086765;28;20650;-61
2023/12/05 03:11:57;;;;;;;27.43;9.37;;;;;;;-0.47;81.84;100558.38;5087338;28;20044;-61
2023/12/05 03:16:45;;;;;;;25.20;9.95;;;;;;;-0.44;81.72;100561.22;5004414;28;20373;-61
2023/12/05 03:19:10;;;;;;;28.03;10.67;;;;;;;-0.38;82.14;100567.69;5001431;28;20489;-61
2023/12/05 03:23:49;;;;;;;25.00;9.17;;;;;;;-0.35;81.92;100563.66;5107951;27;20385;-62
2023/12/05 03:26:22;;;;;;;26.27;10.27;;;;;;;-0.35;81.65;100562.75;5108062;28;20119;-62
2023/12/05 03:28:49;;;;;;;24.07;9.00;;;;;;;-0.36;82.10;100560.94;5107408;28;20036;-62
2023/12/05 03:31:14;;;;;;;28.50;11.18;;;;;;;-0.35;82.10;100560.16;5106018;28;20043;-62
2023/12/05 03:33:40;;;;;;;27.10;10.63;;;;;;;-0.33;82.06;100561.16;5104191;28;20510;-59
2023/12/05 03:36:05;;;;;;;29.80;11.27;;;;;;;-0.29;82.11;100558.03;5104703;28;20089;-60
2023/12/05 03:38:31;;;;;;;21.40;8.47;;;;;;;-0.27;81.88;100565.16;5107303;28;20105;-60
2023/12/05 03:40:56;;;;;;;27.65;10.45;;;;;;;-0.25;81.75;100570.50;5107826;28;20028;-60
2023/12/05 03:43:22;;;;;;;28.07;10.23;;;;;;;-0.24;81.82;100577.47;5106288;28;20056;-60
2023/12/05 03:45:48;;;;;;;20.43;8.27;;;;;;;-0.19;82.09;100577.06;5106189;28;20079;-61
2023/12/05 03:48:13;;;;;;;23.23;9.00;;;;;;;-0.20;81.66;100579.56;5106096;28;20119;-62
2023/12/05 03:50:38;;;;;;;26.40;11.03;;;;;;;-0.21;81.99;100577.75;5087191;28;20090;-61
2023/12/05 03:53:04;;;;;;;25.30;10.37;;;;;;;-0.24;81.92;100583.56;5086979;28;20123;-61
2023/12/05 03:55:32;;;;;;;24.95;9.75;;;;;;;-0.20;81.92;100579.56;5087297;28;20045;-61
2023/12/05 03:57:58;;;;;;;29.43;11.00;;;;;;;-0.21;82.21;100582.94;5087730;28;20036;-61
2023/12/05 04:00:23;;;;;;;28.30;11.45;;;;;;;-0.21;82.06;100576.06;5086950;28;20455;-60
2023/12/05 04:02:48;;;;;;;25.63;9.83;;;;;;;-0.21;81.86;100567.34;5087342;28;20237;-60
2023/12/05 04:05:14;;;;;;;23.13;10.07;;;;;;;-0.20;82.23;100579.56;5086796;28;20063;-60
2023/12/05 04:07:41;;;;;;;29.63;10.93;;;;;;;-0.17;82.08;100574.59;5087177;28;20032;-62
2023/12/05 04:10:07;;;;;;;27.58;11.00;;;;;;;-0.13;82.27;100576.66;5086647;28;20043;-60
2023/12/05 04:12:32;;;;;;;27.52;9.93;;;;;;;-0.11;81.79;100583.78;5087243;28;20044;-60
2023/12/05 04:14:57;;;;;;;29.03;9.90;;;;;;;-0.08;81.99;100584.03;5087101;28;20040;-60
2023/12/05 04:17:23;;;;;;;31.73;11.80;;;;;;;-0.09;82.22;100578.69;5086832;28;20028;-62
2023/12/05 04:19:48;;;;;;;30.93;10.87;;;;;;;-0.09;82.13;100579.59;5086784;28;20431;-61
2023/12/05 04:22:13;;;;;;;23.85;8.20;;;;;;;-0.07;81.93;100577.16;5086522;28;20048;-61
2023/12/05 04:24:39;;;;;;;28.03;10.53;;;;;;;-0.07;81.74;100574.56;5086843;28;20181;-60
2023/12/05 04:27:04;;;;;;;27.73;10.53;;;;;;;-0.07;81.91;100567.66;5085463;28;20032;-61
2023/12/05 04:29:30;;;;;;;26.80;10.17;;;;;;;-0.08;82.03;100564.94;5086658;28;20099;-61
2023/12/05 04:31:55;;;;;;;28.15;9.02;;;;;;;-0.12;81.76;100558.63;5087293;28;20028;-61
2023/12/05 04:34:21;;;;;;;29.50;10.37;;;;;;;-0.13;82.20;100561.97;5077966;28;20610;-61
2023/12/05 04:36:46;;;;;;;30.23;11.80;;;;;;;-0.17;81.80;100557.34;5073395;28;20127;-61
2023/12/05 04:39:12;;;;;;;31.00;10.43;;;;;;;-0.17;82.20;100556.44;5072818;28;20127;-61
2023/12/05 04:41:37;;;;;;;25.88;10.30;;;;;;;-0.21;82.38;100564.75;5072890;28;20064;-61
2023/12/05 04:44:04;;;;;;;27.87;10.60;;;;;;;-0.18;81.96;100567.59;5072945;28;20039;-60
2023/12/05 04:46:29;;;;;;;27.92;10.63;;;;;;;-0.19;81.74;100558.91;5072819;28;20035;-61
2023/12/05 04:48:54;;;;;;;26.03;10.03;;;;;;;-0.17;81.97;100565.13;5066940;28;20399;-60
2023/12/05 04:51:20;;;;;;;27.67;9.97;;;;;;;-0.21;82.25;100554.38;5052852;28;20505;-61
2023/12/05 04:53:45;;;;;;;29.50;11.87;;;;;;;-0.21;82.28;100546.59;5052553;28;20291;-61
2023/12/05 04:56:11;;;;;;;29.10;10.50;;;;;;;-0.20;82.50;100543.22;5052691;28;20575;-60
2023/12/05 04:58:36;;;;;;;23.50;9.65;;;;;;;-0.23;82.39;100541.28;5052039;28;20056;-60
2023/12/05 05:01:02;;;;;;;25.27;10.37;;;;;;;-0.21;82.19;100547.50;5052670;28;20063;-60
2023/12/05 05:03:27;;;;;;;27.07;10.13;;;;;;;-0.23;82.39;100550.75;5052418;28;20060;-60
2023/12/05 05:05:53;;;;;;;23.37;10.20;;;;;;;-0.24;82.09;100548.94;5052418;28;20113;-61
2023/12/05 05:08:18;;;;;;;30.17;10.25;;;;;;;-0.22;82.51;100544.78;5051997;28;20035;-60
2023/12/05 05:10:44;;;;;;;23.60;8.80;;;;;;;-0.22;82.38;100549.97;5052171;28;20601;-60
2023/12/05 05:13:09;;;;;;;25.77;10.47;;;;;;;-0.22;82.38;100549.97;5052294;28;20083;-60
2023/12/05 05:15:34;;;;;;;26.97;9.10;;;;;;;-0.23;82.27;100549.06;5052284;28;20135;-60
2023/12/05 05:18:00;;;;;;;27.67;10.57;;;;;;;-0.25;82.52;100542.84;5052309;28;20596;-60
2023/12/05 05:20:25;;;;;;;29.98;10.40;;;;;;;-0.25;82.27;100540.25;5051666;28;20044;-62
2023/12/05 05:22:51;;;;;;;28.63;10.67;;;;;;;-0.25;82.26;100540.25;5051877;28;20042;-61
2023/12/05 05:25:18;;;;;;;28.67;11.07;;;;;;;-0.23;82.41;100543.88;5052176;28;20037;-61
2023/12/05 05:27:44;;;;;;;26.00;10.35;;;;;;;-0.22;82.53;100540.50;5050917;28;20112;-62
2023/12/05 05:30:10;;;;;;;27.23;10.17;;;;;;;-0.21;82.35;100541.41;5051484;28;20060;-61
2023/12/05 05:32:36;;;;;;;26.08;10.30;;;;;;;-0.24;82.09;100538.53;5052012;28;20501;-60
2023/12/05 05:35:02;;;;;;;25.65;9.73;;;;;;;-0.22;82.56;100545.69;5051826;28;20134;-62
2023/12/05 05:37:28;;;;;;;21.27;9.17;;;;;;;-0.20;82.24;100545.81;5051766;28;20044;-60
2023/12/05 05:39:53;;;;;;;30.00;10.07;;;;;;;-0.19;82.18;100547.59;5051097;28;20037;-61
2023/12/05 05:42:19;;;;;;;27.27;9.97;;;;;;;-0.20;82.56;100548.41;5052090;28;20612;-61
2023/12/05 05:44:45;;;;;;;25.92;11.65;;;;;;;-0.20;82.49;100556.19;5051583;28;20041;-61
2023/12/05 05:47:10;;;;;;;25.30;9.73;;;;;;;-0.20;82.64;100551.88;5051167;28;20072;-61
2023/12/05 05:49:35;;;;;;;38.20;10.43;;;;;;;-0.16;82.65;100553.06;5061715;28;20051;-61
2023/12/05 05:52:01;;;;;;;26.83;10.27;;;;;;;-0.18;82.45;100552.03;5069927;28;20511;-60
2023/12/05 05:54:26;;;;;;;29.50;10.07;;;;;;;-0.16;82.65;100556.56;5051270;28;20115;-61
2023/12/05 05:56:51;;;;;;;20.73;8.88;;;;;;;-0.14;82.82;100556.66;5051394;28;20560;-61
2023/12/05 05:59:17;;;;;;;25.77;10.20;;;;;;;-0.17;82.50;100554.75;5050777;28;20128;-60
2023/12/05 06:01:42;;;;;;;25.73;11.27;;;;;;;-0.18;82.70;100557.22;5051212;28;20546;-61
2023/12/05 06:04:07;;;;;;;28.30;10.37;;;;;;;-0.16;82.63;100555.66;5051042;28;20036;-61
2023/12/05 06:06:33;;;;;;;30.13;10.50;;;;;;;-0.16;82.56;100555.66;5066696;28;20503;-61
2023/12/05 06:08:58;;;;;;;25.65;9.95;;;;;;;-0.15;82.31;100555.75;5070429;28;20039;-60
2023/12/05 06:11:24;;;;;;;22.00;8.63;;;;;;;-0.14;82.56;100554.06;5070939;28;20123;-61
2023/12/05 06:13:49;;;;;;;28.90;10.60;;;;;;;-0.13;82.81;100554.19;5071041;28;20082;-61
2023/12/05 06:16:14;;;;;;;29.07;11.80;;;;;;;-0.13;82.62;100550.69;5070951;28;20128;-62
2023/12/05 06:18:40;;;;;;;23.43;10.20;;;;;;;-0.12;82.83;100552.50;5070491;28;20037;-61
2023/12/05 06:21:05;;;;;;;24.50;9.82;;;;;;;-0.12;82.53;100557.69;5070538;28;20111;-60
2023/12/05 06:23:31;;;;;;;25.63;10.13;;;;;;;-0.10;82.78;100566.53;5070807;28;20040;-61
2023/12/05 06:25:56;;;;;;;30.17;11.80;;;;;;;-0.07;82.38;100564.16;5070791;28;20037;-60
2023/12/05 06:28:21;;;;;;;26.73;10.33;;;;;;;-0.08;82.59;100559.75;5070282;28;20569;-61
2023/12/05 06:30:47;;;;;;;28.97;10.73;;;;;;;-0.02;82.56;100560.25;5070609;28;20283;-61
2023/12/05 06:33:12;;;;;;;30.93;11.00;;;;;;;-0.04;82.69;100552.31;5070710;28;20033;-62
2023/12/05 06:35:38;;;;;;;29.20;10.90;;;;;;;-0.03;82.69;100561.03;5070553;28;20051;-61
2023/12/05 06:38:03;;;;;;;24.67;9.90;;;;;;;-0.02;82.48;100557.66;5070690;28;20032;-61
2023/12/05 06:40:28;;;;;;;23.80;9.73;;;;;;;-0.02;82.51;100553.38;5070192;28;20041;-61
2023/12/05 06:42:54;;;;;;;25.80;9.80;;;;;;;-0.05;82.37;100553.09;5070385;28;20317;-61
2023/12/05 06:45:19;;;;;;;25.83;10.73;;;;;;;-0.04;82.65;100551.41;5070371;28;20036;-61
2023/12/05 06:47:45;;;;;;;28.23;10.50;;;;;;;0.02;82.38;100551.00;5070474;28;20060;-61
2023/12/05 06:50:13;;;;;;;24.20;9.73;;;;;;;0.02;82.29;100557.09;5069697;28;20067;-61
2023/12/05 06:52:40;;;;;;;26.48;9.85;;;;;;;0.02;82.20;100556.19;5070527;28;20457;-61
2023/12/05 06:55:09;;;;;;;23.50;9.45;;;;;;;0.02;82.26;100551.91;5070366;28;20033;-61
2023/12/05 07:00:03;;;;;;;23.88;9.80;;;;;;;-0.03;81.91;100553.25;5107625;27;20412;-62
2023/12/05 07:02:29;;;;;;;24.45;9.90;;;;;;;-0.02;82.18;100550.78;5108529;28;20062;-62
2023/12/05 07:04:57;;;;;;;25.60;10.77;;;;;;;-0.04;82.30;100548.81;5111907;28;20111;-63
2023/12/05 07:07:24;;;;;;;27.92;11.32;;;;;;;-0.02;82.33;100550.78;5107346;28;20050;-62
2023/12/05 07:09:50;;;;;;;26.80;9.97;;;;;;;0.00;82.22;100550.91;5107379;28;20046;-62
2023/12/05 07:12:15;;;;;;;26.35;11.27;;;;;;;0.00;82.27;100544.00;5122330;28;20453;-62
2023/12/05 07:14:40;;;;;;;27.33;10.00;;;;;;;0.03;82.22;100552.81;5128222;27;20160;-62
2023/12/05 07:17:06;;;;;;;27.93;10.77;;;;;;;0.07;81.94;100554.88;5128042;27;20522;-62
2023/12/05 07:19:31;;;;;;;24.13;9.67;;;;;;;0.10;82.31;100557.72;5121802;28;20031;-61
2023/12/05 07:21:57;;;;;;;24.43;9.90;;;;;;;0.13;81.98;100558.84;5107525;28;20050;-61
2023/12/05 07:24:22;;;;;;;19.20;8.87;;;;;;;0.15;82.01;100559.00;5107284;28;20282;-62
2023/12/05 07:26:48;;;;;;;25.37;9.90;;;;;;;0.14;81.61;100558.09;5107332;28;20039;-62
2023/12/05 07:29:14;;;;;;;26.98;10.68;;;;;;;0.17;81.57;100557.41;5106938;28;20421;-62
2023/12/05 07:31:39;;;;;;;20.60;8.53;;;;;;;0.19;81.50;100561.94;5107191;28;20043;-62
2023/12/05 07:34:05;;;;;;;23.47;9.33;;;;;;;0.15;81.58;100564.19;5107218;28;20023;-63
2023/12/05 07:36:30;;;;;;;26.08;10.48;;;;;;;0.14;81.36;100559.78;5110665;28;20023;-62
2023/12/05 07:38:55;;;;;;;21.80;9.23;;;;;;;0.18;81.19;100564.41;5127548;27;20160;-60
2023/12/05 07:41:22;;;;;;;26.00;10.63;;;;;;;0.21;81.59;100567.25;5127749;27;20046;-62
2023/12/05 07:43:49;;;;;;;30.63;11.38;;;;;;;0.21;81.68;100565.53;5127585;27;20032;-62
2023/12/05 07:46:15;;;;;;;25.00;10.00;;;;;;;0.25;81.20;100567.59;5127601;27;20039;-61
2023/12/05 07:48:41;;;;;;;27.60;10.33;;;;;;;0.29;81.71;100569.66;5124291;27;20023;-63
2023/12/05 07:51:06;;;;;;;26.50;10.05;;;;;;;0.35;81.26;100564.94;5107583;28;20531;-62
2023/12/05 07:53:32;;;;;;;24.83;11.20;;;;;;;0.41;80.79;100565.41;5107715;28;20038;-64
2023/12/05 07:55:57;;;;;;;23.43;9.87;;;;;;;0.46;80.70;100564.84;5107555;27;20036;-62
2023/12/05 07:58:22;;;;;;;24.57;9.93;;;;;;;0.49;80.41;100566.03;5106979;28;20302;-62
2023/12/05 08:00:48;;;;;;;25.53;10.90;;;;;;;0.49;80.46;100572.91;5107088;28;20059;-61
2023/12/05 08:03:14;;;;;;;31.07;11.33;;;;;;;0.49;80.40;100562.53;5106835;28;20108;-62
2023/12/05 08:05:40;;;;;;;24.75;9.65;;;;;;;0.53;80.10;100574.94;5106852;28;20480;-62
2023/12/05 08:08:05;;;;;;;27.23;10.33;;;;;;;0.58;80.48;100574.53;5106702;28;20039;-62
2023/12/05 08:10:30;;;;;;;25.27;10.35;;;;;;;0.64;80.34;100568.91;5097585;28;20043;-62
2023/12/05 08:12:56;;;;;;;21.43;8.57;;;;;;;0.70;79.98;100571.94;5093030;28;20089;-61
2023/12/05 08:15:21;;;;;;;24.07;9.80;;;;;;;0.74;79.92;100569.69;5092895;28;20120;-63
2023/12/05 08:17:46;;;;;;;26.93;12.13;;;;;;;0.74;79.74;100574.88;5093176;28;20111;-62
2023/12/05 08:20:13;;;;;;;27.10;11.60;;;;;;;0.75;79.34;100563.72;5092753;28;20036;-62
2023/12/05 08:22:38;;;;;;;27.63;9.88;;;;;;;0.76;79.88;100565.53;5093338;28;20446;-62
2023/12/05 08:25:07;;;;;;;26.07;11.20;;;;;;;0.78;79.46;100566.56;5093159;28;20115;-62
2023/12/05 08:27:33;;;;;;;29.38;11.10;;;;;;;0.81;79.13;100573.69;5093324;28;20035;-63
2023/12/05 08:29:59;;;;;;;32.30;11.57;;;;;;;0.87;79.33;100574.16;5092617;28;20134;-63
2023/12/05 08:32:24;;;;;;;25.03;9.80;;;;;;;0.93;79.34;100564.22;5092838;28;20059;-65
2023/12/05 08:34:50;;;;;;;23.95;10.13;;;;;;;0.95;79.29;100570.41;5093047;28;20377;-63
2023/12/05 08:37:15;;;;;;;24.57;10.07;;;;;;;0.97;79.04;100579.25;5092774;28;20054;-62
2023/12/05 08:39:41;;;;;;;25.00;10.93;;;;;;;0.98;79.10;100574.97;5091403;28;20127;-60
2023/12/05 08:42:06;;;;;;;31.47;11.63;;;;;;;0.98;78.73;100573.28;5092614;28;20457;-63
2023/12/05 08:44:31;;;;;;;23.92;9.60;;;;;;;1.01;78.64;100573.50;5092502;28;20499;-62
2023/12/05 08:46:57;;;;;;;25.50;11.33;;;;;;;1.03;79.19;100569.31;5092517;28;20036;-62
2023/12/05 08:49:22;;;;;;;24.27;10.47;;;;;;;1.07;78.62;100575.66;5091740;28;20044;-62
2023/12/05 08:51:48;;;;;;;26.03;9.63;;;;;;;1.14;78.42;100578.81;5092668;28;20101;-61
2023/12/05 08:54:13;;;;;;;24.95;10.05;;;;;;;1.17;78.34;100575.56;5092422;28;20044;-62
2023/12/05 08:56:38;;;;;;;28.07;10.60;;;;;;;1.24;78.22;100573.50;5092527;28;20062;-62
2023/12/05 08:59:04;;;;;;;25.70;10.30;;;;;;;1.27;77.94;100571.16;5091596;28;20131;-63
2023/12/05 09:01:29;;;;;;;27.30;10.27;;;;;;;1.32;78.26;100578.41;5092230;28;20396;-63
2023/12/05 09:03:55;;;;;;;26.03;10.33;;;;;;;1.39;77.69;100572.84;5092498;28;20032;-62
2023/12/05 09:06:20;;;;;;;23.40;9.83;;;;;;;1.42;77.31;100573.09;5091968;28;20369;-63
2023/12/05 09:08:45;;;;;;;26.40;10.43;;;;;;;1.39;77.26;100572.84;5091594;28;20032;-62
2023/12/05 09:11:12;;;;;;;26.60;11.23;;;;;;;1.37;77.04;100572.75;5092041;28;20123;-62
2023/12/05 09:13:37;;;;;;;28.20;11.27;;;;;;;1.41;77.45;100581.69;5092149;28;20483;-62
2023/12/05 09:16:03;;;;;;;23.63;10.00;;;;;;;1.40;77.70;100572.03;5091968;28;20055;-63
2023/12/05 09:18:28;;;;;;;27.25;11.00;;;;;;;1.44;77.47;100577.59;5091554;28;20036;-62
2023/12/05 09:20:54;;;;;;;22.37;9.57;;;;;;;1.47;78.18;100579.53;5091278;28;20114;-62
2023/12/05 09:23:19;;;;;;;19.87;9.07;;;;;;;1.44;77.37;100571.47;5091194;28;20434;-62
2023/12/05 09:25:45;;;;;;;29.23;9.83;;;;;;;1.41;77.79;100581.69;5091764;28;20123;-63
2023/12/05 09:28:10;;;;;;;22.90;9.80;;;;;;;1.42;77.69;100578.28;5091576;28;20757;-63
2023/12/05 09:30:36;;;;;;;27.37;11.83;;;;;;;1.41;77.02;100572.16;5091290;28;20031;-61
2023/12/05 09:33:02;;;;;;;23.45;9.70;;;;;;;1.40;77.10;100575.56;5091623;28;20035;-62
2023/12/05 09:35:27;;;;;;;22.17;10.57;;;;;;;1.35;77.83;100576.91;5091387;28;20027;-62
2023/12/05 09:37:52;;;;;;;25.23;10.30;;;;;;;1.31;77.69;100585.28;5091632;28;20113;-63
2023/12/05 09:40:19;;;;;;;23.90;9.70;;;;;;;1.33;78.02;100572.41;5090924;28;20377;-62
2023/12/05 09:42:47;;;;;;;30.08;11.43;;;;;;;1.37;77.81;100569.22;5091348;28;20061;-62
2023/12/05 09:45:15;;;;;;;29.47;10.57;;;;;;;1.45;77.37;100568.09;5091329;28;20036;-62
2023/12/05 09:47:42;;;;;;;27.48;11.02;;;;;;;1.46;77.10;100567.31;5091382;28;20036;-62
2023/12/05 09:50:09;;;;;;;25.25;10.65;;;;;;;1.41;77.36;100556.56;5106165;28;20153;-62
2023/12/05 09:52:35;;;;;;;18.88;7.35;;;;;;;1.49;77.95;100559.72;5111645;28;20155;-62
2023/12/05 09:55:01;;;;;;;24.40;10.20;;;;;;;1.46;77.27;100562.09;5111653;28;20533;-61
2023/12/05 09:57:28;;;;;;;20.23;8.57;;;;;;;1.43;77.19;100559.28;5113949;28;20278;-64
2023/12/05 09:59:54;;;;;;;26.45;10.57;;;;;;;1.45;77.42;100553.38;5110782;28;20040;-62
2023/12/05 10:02:20;;;;;;;29.37;11.50;;;;;;;1.53;77.55;100556.56;5111397;28;20453;-62
2023/12/05 10:04:53;;;;;;;31.13;12.13;;;;;;;1.55;77.57;100549.75;5111249;28;20039;-62
2023/12/05 10:07:19;;;;;;;33.03;12.07;;;;;;;1.60;77.40;100558.81;5111329;28;20089;-62
2023/12/05 10:09:45;;;;;;;36.85;14.70;;;;;;;1.61;77.41;100556.31;5110706;28;20036;-62
2023/12/05 10:12:11;;;;;;;44.80;13.50;;;;;;;1.63;77.24;100553.81;5111209;28;20532;-62
2023/12/05 10:14:37;;;;;;;62.85;17.30;;;;;;;1.62;77.45;100552.94;5111045;28;20031;-61
2023/12/05 10:17:04;;;;;;;46.58;11.50;;;;;;;1.62;77.17;100552.03;5111296;28;20071;-64
2023/12/05 10:19:30;;;;;;;32.55;11.65;;;;;;;1.60;77.52;100548.41;5110607;28;20027;-62
2023/12/05 10:21:57;;;;;;;38.20;13.37;;;;;;;1.62;77.21;100546.81;5111224;28;20038;-61
2023/12/05 10:24:22;;;;;;;45.35;14.32;;;;;;;1.67;77.12;100543.75;5110939;28;20077;-63
2023/12/05 10:26:48;;;;;;;51.67;15.77;;;;;;;1.76;77.31;100538.31;5110987;28;20035;-64
2023/12/05 10:29:15;;;;;;;34.35;10.23;;;;;;;1.82;77.17;100536.16;5110710;28;20390;-62
2023/12/05 10:31:43;;;;;;;38.65;11.27;;;;;;;1.87;77.30;100539.06;5111014;28;20067;-61
2023/12/05 10:34:08;;;;;;;33.88;11.82;;;;;;;1.93;76.55;100535.19;5110678;28;20043;-60
2023/12/05 10:36:38;;;;;;;34.83;12.13;;;;;;;2.00;76.83;100526.13;5111041;28;20039;-60
2023/12/05 10:39:05;;;;;;;43.55;13.48;;;;;;;2.04;76.33;100533.34;5110088;28;20043;-63
2023/12/05 10:41:30;;;;;;;42.80;13.50;;;;;;;2.01;76.03;100523.63;5110754;28;20076;-62
2023/12/05 10:43:56;;;;;;;79.23;17.43;;;;;;;1.93;76.10;100527.38;5110864;28;20070;-61
2023/12/05 10:46:26;;;;;;;66.27;15.40;;;;;;;1.92;76.87;100528.19;5110865;28;20549;-62
2023/12/05 10:48:51;;;;;;;55.28;14.07;;;;;;;1.94;76.46;100521.38;5105523;28;20066;-64
2023/12/05 10:51:17;;;;;;;26.77;10.67;;;;;;;1.85;76.35;100520.72;5090262;28;20127;-63
2023/12/05 10:53:42;;;;;;;26.67;10.52;;;;;;;1.88;76.59;100515.72;5090205;28;20040;-61
2023/12/05 10:56:10;;;;;;;23.30;9.67;;;;;;;1.94;76.37;100510.97;5089521;28;20514;-61
2023/12/05 10:58:37;;;;;;;25.33;10.18;;;;;;;2.02;76.89;100515.00;5089271;28;20032;-62
2023/12/05 11:01:03;;;;;;;23.02;9.18;;;;;;;2.10;75.88;100507.75;5090296;28;20065;-62
2023/12/05 11:03:30;;;;;;;28.10;9.63;;;;;;;2.15;76.40;100522.00;5090167;28;20055;-62
2023/12/05 11:05:56;;;;;;;24.50;9.98;;;;;;;2.22;75.89;100518.13;5089760;28;20028;-63
2023/12/05 11:08:21;;;;;;;22.60;10.07;;;;;;;2.28;75.66;100505.50;5089727;28;20161;-60
2023/12/05 11:10:48;;;;;;;17.27;7.43;;;;;;;2.34;75.84;100509.44;5089746;28;20515;-62
2023/12/05 11:13:14;;;;;;;19.83;8.40;;;;;;;2.37;75.14;100509.66;5090216;28;20046;-63
2023/12/05 11:15:43;;;;;;;22.58;9.45;;;;;;;2.34;75.75;100511.16;5095048;28;20033;-63
2023/12/05 11:18:20;;;;;;;24.15;9.82;;;;;;;2.29;75.57;100515.13;5096942;28;20500;-61
2023/12/05 11:21:03;;;;;;;23.40;9.85;;;;;;;2.29;75.96;100500.41;5105668;28;20035;-63
2023/12/05 11:23:59;;;;;;;26.65;10.38;;;;;;;2.34;75.71;100508.53;5106354;28;20036;-61